ROTM

Details ICAO ROTM
Name FUTENMA MCAS
Region Japan
Timezone Asia/Tokyo (UTC+9.0)
Plans Departing 7
Arriving 6
Stats Elevation 247 ft / 75 m (AMSL)
Location 26.274132° 127.756266°
Runways 1
Magnetic Variation 5.253° W
Sunrise 2017-12-10 22:07:45 UTC / 2017-12-11 07:07:45 Local
Sunset 2017-12-11 08:39:18 UTC / 2017-12-11 17:39:18 Local
Advertisement - Login to hide

Runways

ID Width Length Bearing (true) Bearing (mag) Surface Threshold Offset Overrun Length
06 150 ft / 46 m 9,187 ft / 2,800 m 54.84° 60.09° Asphalt 0 ft / 0 m 182 ft / 55 m
24 150 ft / 46 m 9,187 ft / 2,800 m 234.85° 240.10° Asphalt 0 ft / 0 m 0 ft / 0 m

Map

Weather


0- 5 10 15 20 25 30 35+ Temperature / ° C

Clouds and Precipitation
Forecast for 2017-12-11 12:00 UTC. Updated 2 hours ago

Ground ~20,000 ft ~40,000 ft Winds

METAR

ROTM 110900Z 02011KT 10SM SCT045 BKN055 16/08 A3013 RMK AO2 SLP190 STNPR29825 T01610083 53015

TAF

TAF ROTM 1109/1209 01012G20KT 9999 SCT045 BKN55 QNH3009INS BECMG 1112/1114 36010G22KT 9999 FEW040 SCT045 QNH3015INS T16/1121Z T22/1205Z

Frequencies

Ground 122.80 MHz GND
Tower 123.60 MHz TWR
Warning: Do not use this data for real-world aviation or navigation. No guarantee of current accuracy is given.